Time;durP1;ratioP1;P1;durP2;ratioP2;P2;SDS_P1;SDS_P2;PMS_P1;PMS_P2;Temp;Humidity;BMP_temperature;BMP_pressure;BME280_temperature;BME280_humidity;BME280_pressure;Samples;Min_cycle;Max_cycle;Signal;HPM_P1;HPM_P2
2022/05/30 00:02:15;;;;;;;13.85;8.50;;;14.80;99.90;;;;;;5050078;28;20073;-75
2022/05/30 00:04:43;;;;;;;11.18;7.50;;;14.80;99.90;;;;;;5059244;28;20561;-75
2022/05/30 00:07:10;;;;;;;11.30;7.93;;;14.80;99.90;;;;;;5063207;28;20063;-75
2022/05/30 00:09:38;;;;;;;10.70;8.70;;;14.80;99.90;;;;;;5060295;28;20464;-75
2022/05/30 00:12:06;;;;;;;15.25;8.82;;;14.80;99.90;;;;;;5054332;28;20511;-75
2022/05/30 00:14:34;;;;;;;16.63;9.38;;;14.80;99.90;;;;;;5053821;28;20418;-75
2022/05/30 00:17:02;;;;;;;11.80;9.52;;;14.80;99.90;;;;;;5054795;28;20053;-75
2022/05/30 00:19:30;;;;;;;10.77;9.20;;;14.80;99.90;;;;;;5053101;28;20139;-75
2022/05/30 00:21:58;;;;;;;16.15;10.27;;;14.80;99.90;;;;;;5047965;28;20037;-75
2022/05/30 00:24:25;;;;;;;12.23;9.20;;;14.80;99.90;;;;;;5050057;28;20045;-74
2022/05/30 00:26:53;;;;;;;12.25;9.80;;;14.70;99.90;;;;;;5058203;28;20459;-75
2022/05/30 00:29:20;;;;;;;12.48;9.52;;;14.70;99.90;;;;;;5055976;28;20052;-75
2022/05/30 00:31:48;;;;;;;13.95;8.73;;;14.60;99.90;;;;;;5056458;28;20059;-76
2022/05/30 00:34:17;;;;;;;13.25;9.10;;;14.60;99.90;;;;;;5054654;28;20051;-74
2022/05/30 00:36:46;;;;;;;14.77;9.35;;;14.60;99.90;;;;;;5055348;28;20040;-75
2022/05/30 00:39:13;;;;;;;12.60;9.27;;;14.60;99.90;;;;;;5054634;28;20052;-74
2022/05/30 00:41:41;;;;;;;12.05;9.38;;;14.60;99.90;;;;;;5054303;28;20051;-75
2022/05/30 00:44:08;;;;;;;11.45;8.38;;;14.60;99.90;;;;;;5051930;28;20033;-75
2022/05/30 00:46:36;;;;;;;14.48;9.55;;;14.60;99.90;;;;;;5053204;28;20049;-75
2022/05/30 00:49:06;;;;;;;12.68;8.73;;;14.70;99.90;;;;;;5054111;28;20041;-74
2022/05/30 00:51:37;;;;;;;12.18;8.85;;;14.60;99.90;;;;;;5052448;28;20086;-75
2022/05/30 00:54:09;;;;;;;11.93;8.00;;;14.70;99.90;;;;;;5052272;28;20045;-75
2022/05/30 00:56:40;;;;;;;13.55;9.80;;;14.60;99.90;;;;;;5058272;28;20045;-74
2022/05/30 00:59:08;;;;;;;12.55;9.02;;;14.60;99.90;;;;;;5057267;28;20045;-75
2022/05/30 01:01:37;;;;;;;14.90;9.10;;;14.60;99.90;;;;;;5056000;28;20061;-74
2022/05/30 01:07:08;;;;;;;14.65;10.48;;;14.60;99.90;;;;;;5018266;28;20152;-76
2022/05/30 01:09:40;;;;;;;14.73;10.80;;;14.60;99.90;;;;;;5027427;28;20041;-76
2022/05/30 01:12:11;;;;;;;17.60;10.80;;;14.50;99.90;;;;;;5045341;28;20071;-75
2022/05/30 01:14:40;;;;;;;14.82;9.50;;;14.50;99.90;;;;;;5055070;28;20115;-75
2022/05/30 01:17:10;;;;;;;17.05;10.18;;;14.50;99.90;;;;;;5055295;28;20492;-75
2022/05/30 01:19:54;;;;;;;18.60;10.82;;;14.50;99.90;;;;;;5056047;28;20053;-75
2022/05/30 01:22:49;;;;;;;15.30;10.65;;;14.40;99.90;;;;;;5046323;28;20087;-74
2022/05/30 01:25:28;;;;;;;;;;;14.30;99.90;;;;;;5045283;28;20053;-76
2022/05/30 01:28:40;;;;;;;16.35;9.90;;;14.30;99.90;;;;;;5055606;28;19928;-75
2022/05/30 01:31:08;;;;;;;15.30;9.63;;;14.30;99.90;;;;;;5055253;28;20077;-75
2022/05/30 01:33:36;;;;;;;13.93;10.70;;;14.30;99.90;;;;;;5055178;28;20492;-75
2022/05/30 01:36:06;;;;;;;14.45;10.82;;;14.20;99.90;;;;;;5065211;28;20047;-74
2022/05/30 01:38:34;;;;;;;16.92;10.05;;;14.10;99.90;;;;;;5063284;28;20076;-75
2022/05/30 01:41:04;;;;;;;19.73;11.75;;;14.10;99.90;;;;;;5047295;28;20054;-75
2022/05/30 01:43:34;;;;;;;19.33;11.18;;;14.20;99.90;;;;;;5044375;28;20057;-75
2022/05/30 01:46:09;;;;;;;20.55;12.68;;;14.10;99.90;;;;;;5054806;28;20041;-75
2022/05/30 01:48:43;;;;;;;17.57;11.53;;;14.20;99.90;;;;;;5055320;28;20053;-75
2022/05/30 01:51:11;;;;;;;19.92;11.77;;;14.20;99.90;;;;;;5055167;28;20298;-75
2022/05/30 01:53:38;;;;;;;22.88;13.23;;;14.10;99.90;;;;;;5054665;28;20045;-75
2022/05/30 01:56:12;;;;;;;55.67;35.35;;;14.10;99.90;;;;;;5056281;28;20056;-75
2022/05/30 01:58:41;;;;;;;18.67;12.57;;;14.10;99.90;;;;;;5055090;28;20480;-74
2022/05/30 02:01:45;;;;;;;21.60;14.63;;;14.10;99.90;;;;;;5033839;28;20472;-76
2022/05/30 02:04:18;;;;;;;19.58;13.95;;;14.10;99.90;;;;;;5050636;28;20049;-76
2022/05/30 02:06:45;;;;;;;22.88;14.80;;;14.10;99.90;;;;;;5054761;28;20049;-75
2022/05/30 02:09:14;;;;;;;22.15;13.60;;;14.20;99.90;;;;;;5054661;28;20412;-75
2022/05/30 02:11:42;;;;;;;23.98;13.52;;;14.20;99.90;;;;;;5054627;28;20056;-75
2022/05/30 02:14:37;;;;;;;19.80;13.15;;;14.20;99.90;;;;;;5052156;28;20055;-75
2022/05/30 02:17:04;;;;;;;20.58;13.38;;;14.20;99.90;;;;;;5054503;28;20053;-75
2022/05/30 02:19:34;;;;;;;17.60;13.10;;;14.30;99.90;;;;;;5056039;28;20045;-75
2022/05/30 02:22:08;;;;;;;22.15;13.63;;;14.30;99.90;;;;;;5055617;28;20041;-76
2022/05/30 02:24:38;;;;;;;17.00;11.65;;;14.20;99.90;;;;;;5047798;28;20115;-75
2022/05/30 02:27:07;;;;;;;20.35;12.50;;;14.20;99.90;;;;;;5047153;28;20068;-75
2022/05/30 02:29:35;;;;;;;22.02;13.05;;;14.30;99.90;;;;;;5056932;28;20051;-74
2022/05/30 02:32:07;;;;;;;22.63;13.00;;;14.10;99.90;;;;;;5056136;28;20405;-77
2022/05/30 02:37:22;;;;;;;18.52;12.23;;;13.90;99.90;;;;;;5057388;28;20062;-75
2022/05/30 02:39:53;;;;;;;17.73;11.27;;;13.90;99.90;;;;;;5057050;28;20045;-75
2022/05/30 02:42:29;;;;;;;16.17;11.50;;;13.80;99.90;;;;;;5058149;28;20060;-75
2022/05/30 02:44:59;;;;;;;15.10;10.82;;;13.80;99.90;;;;;;5041645;28;20061;-75
2022/05/30 02:47:28;;;;;;;20.05;12.23;;;13.90;99.90;;;;;;5049447;28;20530;-76
2022/05/30 02:50:09;;;;;;;18.92;12.85;;;13.80;99.90;;;;;;5057016;28;20037;-75
2022/05/30 02:52:36;;;;;;;21.63;14.88;;;13.90;99.90;;;;;;5054525;28;20454;-75
2022/05/30 02:55:05;;;;;;;23.95;13.52;;;13.90;99.90;;;;;;5053905;28;20071;-75
2022/05/30 02:57:50;;;;;;;26.20;14.98;;;13.90;99.90;;;;;;5054054;28;20526;-75
2022/05/30 03:00:19;;;;;;;19.20;12.05;;;13.90;99.90;;;;;;5053142;28;20132;-76
2022/05/30 03:02:53;;;;;;;14.38;8.93;;;13.90;99.90;;;;;;5053163;28;20048;-75
2022/05/30 03:05:21;;;;;;;14.20;9.05;;;13.90;99.90;;;;;;5053282;28;20060;-75
2022/05/30 03:07:48;;;;;;;15.85;7.63;;;13.90;99.90;;;;;;5053628;28;20049;-77
2022/05/30 03:10:39;;;;;;;17.45;9.23;;;14.00;99.90;;;;;;5035432;28;20530;-75
2022/05/30 03:13:07;;;;;;;22.30;10.55;;;14.00;99.90;;;;;;5053392;28;20448;-76
2022/05/30 03:15:36;;;;;;;30.02;16.60;;;14.00;99.90;;;;;;5051435;28;20040;-76
2022/05/30 03:18:05;;;;;;;18.38;10.00;;;14.00;99.90;;;;;;5050294;28;20041;-75
2022/05/30 03:20:33;;;;;;;18.08;8.68;;;14.00;99.90;;;;;;5046656;28;20099;-75
2022/05/30 03:23:03;;;;;;;14.38;7.43;;;14.10;99.90;;;;;;5052224;28;20045;-75
2022/05/30 03:25:30;;;;;;;14.65;7.07;;;14.10;99.90;;;;;;5053890;28;20041;-76
2022/05/30 03:28:02;;;;;;;15.02;6.75;;;14.10;99.90;;;;;;5055172;28;20037;-76
2022/05/30 03:30:29;;;;;;;13.68;6.25;;;14.10;99.90;;;;;;5056842;28;20041;-76
2022/05/30 03:32:58;;;;;;;17.02;7.70;;;14.10;99.90;;;;;;5054598;28;20461;-76
2022/05/30 03:35:27;;;;;;;14.18;7.15;;;14.20;99.90;;;;;;5051150;28;20140;-75
2022/05/30 03:38:09;;;;;;;17.55;7.82;;;14.20;99.90;;;;;;5052741;28;20037;-75
2022/05/30 03:40:56;;;;;;;12.80;7.43;;;14.20;99.90;;;;;;5037920;28;20064;-75
2022/05/30 03:43:45;;;;;;;14.38;7.30;;;14.30;99.90;;;;;;5052184;28;20488;-75
2022/05/30 03:46:12;;;;;;;15.82;8.45;;;14.20;99.90;;;;;;5051566;28;20045;-75
2022/05/30 03:48:40;;;;;;;13.20;7.78;;;14.20;99.90;;;;;;5051394;28;20511;-75
2022/05/30 03:51:13;;;;;;;12.68;8.00;;;14.20;99.90;;;;;;5052445;28;20052;-76
2022/05/30 03:53:43;;;;;;;13.05;8.45;;;14.20;99.90;;;;;;5046201;28;20091;-75
2022/05/30 03:56:12;;;;;;;13.13;8.82;;;14.20;99.90;;;;;;5053185;28;20045;-75
2022/05/30 03:58:39;;;;;;;16.27;8.32;;;14.20;99.90;;;;;;5036624;28;20537;-75
2022/05/30 04:01:08;;;;;;;17.00;8.57;;;14.20;99.90;;;;;;5033238;28;20052;-74
2022/05/30 04:03:37;;;;;;;14.20;8.85;;;14.20;99.90;;;;;;5032680;28;20131;-75
2022/05/30 04:06:05;;;;;;;10.93;7.47;;;14.20;99.90;;;;;;5039914;28;20583;-75
2022/05/30 04:08:34;;;;;;;14.15;7.93;;;14.30;99.90;;;;;;5044475;28;20052;-76
2022/05/30 04:11:20;;;;;;;13.20;7.25;;;14.30;99.90;;;;;;5052244;28;20048;-75
2022/05/30 04:14:06;;;;;;;13.73;7.47;;;14.20;99.90;;;;;;5053916;28;20086;-75
2022/05/30 04:16:33;;;;;;;17.67;8.30;;;14.20;99.90;;;;;;5053367;28;20048;-74
2022/05/30 04:19:05;;;;;;;14.52;8.95;;;14.30;99.90;;;;;;5052679;28;20531;-75
2022/05/30 04:21:32;;;;;;;15.77;8.70;;;14.30;99.90;;;;;;5044561;28;20045;-75
2022/05/30 04:24:01;;;;;;;12.73;8.75;;;14.20;99.90;;;;;;5052154;28;20059;-75
2022/05/30 04:26:28;;;;;;;15.05;8.98;;;14.30;99.90;;;;;;5052164;28;20044;-75
2022/05/30 04:28:56;;;;;;;17.73;8.68;;;14.30;99.90;;;;;;5053166;28;20053;-76
2022/05/30 04:31:51;;;;;;;16.85;9.25;;;14.30;99.90;;;;;;5052718;28;20134;-74
2022/05/30 04:34:18;;;;;;;14.95;9.48;;;14.30;99.90;;;;;;5058450;28;20515;-76
2022/05/30 04:36:45;;;;;;;20.33;14.32;;;14.40;99.90;;;;;;5052333;28;20380;-75
2022/05/30 04:39:14;;;;;;;18.75;9.60;;;14.30;99.90;;;;;;5047172;28;20054;-75
2022/05/30 04:42:00;;;;;;;15.98;9.98;;;14.30;99.90;;;;;;5051446;28;20060;-74
2022/05/30 04:44:27;;;;;;;12.38;8.13;;;14.30;99.90;;;;;;5052091;28;20495;-74
2022/05/30 04:47:11;;;;;;;15.60;9.38;;;14.30;99.90;;;;;;5050612;28;20063;-76
2022/05/30 04:49:42;;;;;;;19.27;8.98;;;14.40;99.90;;;;;;5052092;28;20516;-76
2022/05/30 04:52:10;;;;;;;12.27;8.60;;;14.40;99.90;;;;;;5053944;28;20416;-75
2022/05/30 04:54:39;;;;;;;14.77;8.38;;;14.40;99.90;;;;;;5052391;28;20116;-75
2022/05/30 04:57:19;;;;;;;17.48;9.43;;;14.50;99.90;;;;;;5052502;28;20503;-76
2022/05/30 05:00:19;;;;;;;14.90;9.18;;;14.60;99.90;;;;;;5054166;28;20056;-75
2022/05/30 05:02:47;;;;;;;16.60;9.48;;;14.60;99.90;;;;;;5055726;28;20407;-75
2022/05/30 05:05:15;;;;;;;15.95;8.98;;;14.70;99.90;;;;;;5054408;28;20059;-76
2022/05/30 05:07:50;;;;;;;16.05;8.90;;;14.80;99.90;;;;;;5053392;28;20059;-76
2022/05/30 05:10:47;;;;;;;15.98;8.23;;;14.80;99.90;;;;;;5060754;28;20063;-76
2022/05/30 05:13:33;;;;;;;15.82;8.27;;;15.00;99.90;;;;;;5066599;28;20068;-76
2022/05/30 05:16:33;;;;;;;11.98;7.93;;;15.00;99.90;;;;;;5022448;28;20060;-77
2022/05/30 05:19:01;;;;;;;15.93;9.07;;;15.00;99.90;;;;;;5053187;28;20053;-76
2022/05/30 05:21:31;;;;;;;14.43;8.18;;;15.00;99.90;;;;;;5052509;28;20140;-76
2022/05/30 05:23:59;;;;;;;16.02;8.70;;;15.00;99.90;;;;;;5052776;28;20120;-76
2022/05/30 05:26:36;;;;;;;13.07;9.05;;;15.00;99.90;;;;;;5052740;28;20519;-77
2022/05/30 05:29:11;;;;;;;19.20;10.68;;;15.00;99.90;;;;;;5052316;28;20053;-76
2022/05/30 05:31:40;;;;;;;18.27;11.52;;;15.10;99.90;;;;;;5052124;28;20052;-76
2022/05/30 05:34:11;;;;;;;18.13;11.02;;;15.10;99.90;;;;;;5051932;28;20068;-77
2022/05/30 05:36:40;;;;;;;14.77;10.55;;;15.00;99.90;;;;;;5053223;28;20029;-76
2022/05/30 05:39:10;;;;;;;16.25;10.25;;;15.00;99.90;;;;;;5044688;28;20128;-76
2022/05/30 05:41:58;;;;;;;19.05;10.98;;;14.90;99.90;;;;;;5056259;28;20408;-76
2022/05/30 05:44:27;;;;;;;16.08;11.15;;;14.90;99.90;;;;;;5056357;28;20091;-76
2022/05/30 05:46:58;;;;;;;15.50;10.80;;;14.90;99.90;;;;;;5055621;28;20037;-77
2022/05/30 05:49:27;;;;;;;20.10;11.15;;;15.00;99.90;;;;;;5056342;28;20571;-76
2022/05/30 05:51:55;;;;;;;19.70;11.35;;;15.10;99.90;;;;;;5055660;28;20565;-76
2022/05/30 05:54:25;;;;;;;20.13;11.18;;;15.10;99.90;;;;;;5056510;28;20047;-77
2022/05/30 05:56:55;;;;;;;17.02;12.23;;;15.10;99.90;;;;;;5056063;28;20404;-76
2022/05/30 05:59:29;;;;;;;20.00;12.82;;;15.20;99.90;;;;;;5055986;28;20139;-77
2022/05/30 06:01:57;;;;;;;15.45;11.63;;;15.30;99.90;;;;;;5055614;28;20052;-77
2022/05/30 06:04:25;;;;;;;21.13;10.75;;;15.30;99.90;;;;;;5054938;28;20045;-77
2022/05/30 06:07:01;;;;;;;25.13;13.75;;;15.40;99.90;;;;;;5051537;28;20212;-77
2022/05/30 06:09:33;;;;;;;19.25;12.25;;;15.40;99.90;;;;;;5055226;28;20048;-77
2022/05/30 06:12:31;;;;;;;15.93;12.27;;;15.40;99.90;;;;;;5047635;28;20049;-78
2022/05/30 06:15:00;;;;;;;21.60;13.85;;;15.50;99.90;;;;;;5056393;28;20084;-77
2022/05/30 06:17:27;;;;;;;21.90;14.48;;;15.60;99.90;;;;;;5055818;28;20131;-78
2022/05/30 06:19:55;;;;;;;33.65;22.52;;;15.60;99.90;;;;;;5057402;28;20045;-77
2022/05/30 06:22:24;;;;;;;23.58;14.85;;;15.70;99.90;;;;;;5062346;28;20060;-74
2022/05/30 06:24:51;;;;;;;20.45;15.35;;;15.80;99.90;;;;;;5068091;28;20068;-79
2022/05/30 06:27:37;;;;;;;22.90;14.60;;;16.00;99.90;;;;;;5068027;28;20143;-77
2022/05/30 06:30:21;;;;;;;20.35;13.38;;;16.10;99.90;;;;;;5075362;28;20071;-76
2022/05/30 06:32:49;;;;;;;21.23;15.18;;;16.10;99.90;;;;;;5075589;28;20087;-78
2022/05/30 06:35:26;;;;;;;21.98;14.13;;;16.00;99.90;;;;;;5070442;28;20059;-77
2022/05/30 06:37:53;;;;;;;17.33;12.93;;;16.10;99.90;;;;;;5056734;28;20059;-77
2022/05/30 06:40:20;;;;;;;17.25;12.52;;;16.00;99.90;;;;;;5056181;28;20045;-78
2022/05/30 06:42:55;;;;;;;18.87;13.67;;;16.10;99.90;;;;;;5058512;28;20508;-75
2022/05/30 06:45:27;;;;;;;21.08;13.25;;;16.10;99.90;;;;;;5059231;28;20324;-76
2022/05/30 06:48:13;;;;;;;21.02;14.32;;;16.00;99.90;;;;;;5057841;28;20052;-77
2022/05/30 06:51:14;;;;;;;21.23;14.13;;;15.80;99.90;;;;;;5024474;28;20598;-77
2022/05/30 06:53:43;;;;;;;23.50;13.80;;;15.80;99.90;;;;;;5056833;28;20045;-76
2022/05/30 06:56:16;;;;;;;26.25;16.48;;;16.00;99.90;;;;;;5056416;28;20037;-76
2022/05/30 06:58:44;;;;;;;21.23;14.20;;;16.10;99.90;;;;;;5058318;28;20071;-76
2022/05/30 07:01:13;;;;;;;21.65;15.65;;;16.10;99.90;;;;;;5056249;28;20064;-76
2022/05/30 07:03:41;;;;;;;23.40;16.63;;;16.20;99.90;;;;;;5057594;28;20077;-77
2022/05/30 07:06:29;;;;;;;19.73;15.40;;;16.40;99.90;;;;;;5057296;28;20119;-76
2022/05/30 07:09:00;;;;;;;18.38;14.90;;;16.50;99.90;;;;;;5058465;28;20076;-76
2022/05/30 07:11:38;;;;;;;29.63;16.40;;;16.60;99.90;;;;;;5059864;28;20053;-76
2022/05/30 07:14:09;;;;;;;23.40;16.02;;;16.70;99.90;;;;;;5060350;28;20107;-76
2022/05/30 07:16:39;;;;;;;25.42;14.25;;;16.90;99.90;;;;;;5060827;28;20396;-78
2022/05/30 07:19:09;;;;;;;18.65;13.98;;;17.00;99.90;;;;;;5057758;28;20071;-77
2022/05/30 07:21:41;;;;;;;19.35;14.13;;;17.10;99.90;;;;;;5056897;28;20098;-77
2022/05/30 07:24:27;;;;;;;20.23;16.00;;;17.00;99.90;;;;;;5036762;28;20135;-76
2022/05/30 07:27:13;;;;;;;18.63;14.20;;;17.10;99.90;;;;;;5036224;28;20048;-78
2022/05/30 07:30:01;;;;;;;19.80;14.48;;;16.80;99.90;;;;;;5010615;28;20524;-75
2022/05/30 07:32:49;;;;;;;20.35;15.27;;;16.70;99.90;;;;;;5053979;28;20183;-77
2022/05/30 07:35:35;;;;;;;29.13;18.40;;;16.80;99.90;;;;;;5054977;28;20052;-75
2022/05/30 07:38:21;;;;;;;20.08;15.35;;;17.00;99.90;;;;;;5054644;28;20191;-75
2022/05/30 07:41:07;;;;;;;18.98;14.48;;;17.00;99.90;;;;;;5055352;28;20056;-77
2022/05/30 07:43:44;;;;;;;19.38;13.70;;;17.10;99.90;;;;;;5053256;28;20146;-76
2022/05/30 07:46:46;;;;;;;22.60;15.02;;;17.30;99.90;;;;;;5041439;28;20044;-76
2022/05/30 07:49:30;;;;;;;19.02;14.77;;;17.40;99.90;;;;;;5052454;28;20056;-77
2022/05/30 07:52:17;;;;;;;21.52;15.32;;;17.30;99.90;;;;;;5054655;28;20115;-75
2022/05/30 07:55:19;;;;;;;21.33;16.17;;;17.30;99.90;;;;;;4992968;28;20054;-76
2022/05/30 07:57:53;;;;;;;22.83;17.30;;;17.30;99.90;;;;;;5036765;28;20129;-78
2022/05/30 08:00:27;;;;;;;22.17;16.88;;;17.30;99.90;;;;;;5054462;28;20053;-76
2022/05/30 08:03:00;;;;;;;;;;;17.40;99.90;;;;;;5045744;28;20045;-77
2022/05/30 08:05:33;;;;;;;23.05;16.92;;;17.70;99.90;;;;;;5070887;28;19967;-77
2022/05/30 08:08:30;;;;;;;19.52;16.20;;;18.00;99.90;;;;;;5016398;28;20165;-75
2022/05/30 08:10:57;;;;;;;20.90;16.42;;;18.00;99.90;;;;;;5042541;28;20076;-76
2022/05/30 08:13:26;;;;;;;25.05;15.98;;;18.30;99.90;;;;;;5053282;28;20053;-77
2022/05/30 08:16:00;;;;;;;22.30;17.05;;;18.20;99.90;;;;;;5052283;28;20048;-76
2022/05/30 08:18:32;;;;;;;23.23;16.77;;;18.20;99.90;;;;;;5052466;28;20043;-76
2022/05/30 08:21:05;;;;;;;24.48;16.80;;;18.30;99.90;;;;;;5053319;28;20135;-76
2022/05/30 08:23:36;;;;;;;25.90;19.92;;;18.40;99.90;;;;;;5056718;28;20045;-76
2022/05/30 08:26:04;;;;;;;22.10;16.50;;;18.40;99.90;;;;;;5053001;28;20048;-75
2022/05/30 08:28:45;;;;;;;23.50;17.42;;;18.70;99.90;;;;;;5053685;28;20567;-77
2022/05/30 08:31:13;;;;;;;28.67;20.65;;;19.00;99.90;;;;;;5054821;28;20049;-76
2022/05/30 08:33:46;;;;;;;28.60;19.25;;;19.10;99.90;;;;;;5057166;28;20052;-77
2022/05/30 08:36:27;;;;;;;29.45;20.67;;;19.00;99.90;;;;;;5058142;28;20103;-77
2022/05/30 08:41:46;;;;;;;25.55;19.38;;;19.10;99.90;;;;;;5071867;28;20075;-77
2022/05/30 08:41:47;;;;;;;31.80;20.95;;;19.20;99.90;;;;;;5068842;28;20117;-77
2022/05/30 08:44:50;;;;;;;26.65;21.33;;;19.00;99.90;;;;;;5070102;28;20047;-76
2022/05/30 08:47:48;;;;;;;33.97;23.48;;;19.00;99.90;;;;;;5069884;28;20071;-77
2022/05/30 08:50:27;;;;;;;30.80;20.20;;;19.20;99.90;;;;;;5062721;28;20104;-78
2022/05/30 08:53:12;;;;;;;24.60;18.15;;;19.20;99.90;;;;;;5055440;28;20057;-76
2022/05/30 08:55:46;;;;;;;23.67;17.48;;;19.30;99.90;;;;;;5055965;28;20522;-76
2022/05/30 08:58:41;;;;;;;29.85;17.65;;;19.40;99.90;;;;;;5057114;28;20053;-78
2022/05/30 09:01:15;;;;;;;22.33;17.65;;;19.50;99.90;;;;;;5053726;28;20118;-77
2022/05/30 09:04:29;;;;;;;24.90;18.20;;;19.60;99.90;;;;;;5045765;28;20060;-77
2022/05/30 09:07:01;;;;;;;32.00;20.15;;;19.80;99.90;;;;;;5053631;28;20091;-77
2022/05/30 09:09:42;;;;;;;31.38;21.85;;;20.10;99.90;;;;;;5053534;28;20155;-77
2022/05/30 09:12:22;;;;;;;31.05;22.08;;;20.30;99.90;;;;;;5053174;28;20098;-77
2022/05/30 09:15:12;;;;;;;22.73;18.65;;;20.40;99.90;;;;;;5053262;28;20049;-76
2022/05/30 09:17:48;;;;;;;28.15;19.88;;;20.60;99.90;;;;;;5057496;28;20496;-76
2022/05/30 09:20:17;;;;;;;27.45;20.00;;;20.70;99.90;;;;;;5057365;28;20075;-76
2022/05/30 09:22:46;;;;;;;23.15;18.58;;;20.90;99.90;;;;;;5057066;28;20053;-76
2022/05/30 09:28:39;;;;;;;24.00;17.77;;;21.30;99.90;;;;;;5043011;28;20084;-78
2022/05/30 09:32:00;;;;;;;;;;;21.60;99.90;;;;;;5056532;28;20151;-77
2022/05/30 09:34:49;;;;;;;21.52;16.75;;;21.80;99.90;;;;;;5047137;28;19941;-77
2022/05/30 09:37:34;;;;;;;16.42;14.65;;;21.90;99.90;;;;;;5058203;28;20052;-78
2022/05/30 09:40:39;;;;;;;22.60;15.20;;;21.70;99.90;;;;;;5058363;28;20072;-78
2022/05/30 09:43:30;;;;;;;18.95;15.30;;;21.00;99.90;;;;;;5056923;28;20052;-76
2022/05/30 09:46:14;;;;;;;93.15;22.73;;;20.70;99.90;;;;;;5055786;28;20102;-76
2022/05/30 09:49:03;;;;;;;19.52;13.95;;;20.40;99.90;;;;;;5057849;28;20060;-76
2022/05/30 09:51:33;;;;;;;21.63;12.50;;;19.90;99.90;;;;;;5056341;28;20045;-77
2022/05/30 09:54:09;;;;;;;19.02;12.00;;;19.90;99.90;;;;;;5056265;28;20041;-76
2022/05/30 09:56:43;;;;;;;21.67;11.30;;;19.80;99.90;;;;;;5055911;28;20366;-76
2022/05/30 09:59:31;;;;;;;16.73;11.88;;;20.00;99.90;;;;;;5056211;28;20060;-76
2022/05/30 10:02:23;;;;;;;11.68;9.75;;;20.30;99.90;;;;;;5056165;28;20079;-76
2022/05/30 10:04:56;;;;;;;16.17;11.40;;;20.40;99.90;;;;;;5056155;28;20079;-77
2022/05/30 10:07:24;;;;;;;17.17;10.63;;;20.50;99.90;;;;;;5056658;28;20071;-77
2022/05/30 10:10:04;;;;;;;13.55;11.82;;;20.70;99.90;;;;;;5055968;28;20075;-77
2022/05/30 10:12:44;;;;;;;17.95;12.85;;;20.90;99.90;;;;;;5056189;28;20145;-78
2022/05/30 10:15:27;;;;;;;20.52;12.32;;;21.10;99.90;;;;;;5056289;28;20055;-76
2022/05/30 10:18:25;;;;;;;17.42;13.82;;;20.90;99.90;;;;;;5056446;28;20039;-77
2022/05/30 10:21:22;;;;;;;19.15;14.65;;;20.90;99.90;;;;;;5056228;28;20052;-77
2022/05/30 10:30:26;;;;;;;19.27;13.93;;;20.20;99.90;;;;;;5057310;28;20049;-77
2022/05/30 10:33:33;;;;;;;20.33;15.73;;;20.40;99.90;;;;;;5045411;28;20060;-76
2022/05/30 10:36:12;;;;;;;24.08;15.80;;;20.10;99.90;;;;;;5055084;28;20537;-76
2022/05/30 10:38:55;;;;;;;21.88;14.82;;;20.00;99.90;;;;;;5056813;28;20423;-76
2022/05/30 10:41:30;;;;;;;19.25;14.13;;;19.80;99.90;;;;;;5055541;28;20049;-76
2022/05/30 10:44:07;;;;;;;17.75;14.07;;;19.70;99.90;;;;;;5054795;28;20053;-79
2022/05/30 10:46:43;;;;;;;22.50;16.80;;;19.60;99.90;;;;;;5054712;28;20137;-77
2022/05/30 10:49:14;;;;;;;21.75;15.30;;;19.60;99.90;;;;;;5055284;28;20381;-78
2022/05/30 10:51:50;;;;;;;23.08;15.73;;;19.40;99.90;;;;;;5055744;28;20049;-78
2022/05/30 10:54:25;;;;;;;28.77;19.40;;;19.30;99.90;;;;;;5055145;28;20126;-78
2022/05/30 10:57:09;;;;;;;22.90;15.85;;;19.10;99.90;;;;;;5054802;28;20045;-78
2022/05/30 10:59:41;;;;;;;22.63;15.55;;;19.00;99.90;;;;;;5054238;28;20041;-78
2022/05/30 11:02:20;;;;;;;22.10;13.00;;;19.00;99.90;;;;;;5054913;28;20135;-77
2022/05/30 11:04:52;;;;;;;22.10;12.07;;;18.90;99.90;;;;;;5056668;28;20044;-76
2022/05/30 11:07:42;;;;;;;19.90;14.25;;;18.70;99.90;;;;;;5076347;22;20045;-78
2022/05/30 11:10:27;;;;;;;16.15;12.45;;;18.80;99.90;;;;;;5062241;28;20522;-77
2022/05/30 11:13:02;;;;;;;17.00;11.93;;;18.60;99.90;;;;;;5054742;28;20049;-78
2022/05/30 11:15:35;;;;;;;14.95;11.68;;;18.70;99.90;;;;;;5054918;28;20049;-78
2022/05/30 11:18:32;;;;;;;17.05;12.82;;;18.70;99.90;;;;;;5058675;28;20130;-79
2022/05/30 11:21:29;;;;;;;18.75;10.95;;;18.60;99.90;;;;;;5057963;28;20048;-78
2022/05/30 11:24:01;;;;;;;26.98;13.02;;;18.60;99.90;;;;;;5060668;28;20045;-78
2022/05/30 11:26:52;;;;;;;20.85;12.57;;;18.60;99.90;;;;;;5059416;28;20045;-78
2022/05/30 11:29:41;;;;;;;20.88;13.43;;;18.60;99.90;;;;;;5059909;28;20128;-78
2022/05/30 11:32:19;;;;;;;21.92;14.52;;;18.50;99.90;;;;;;5051868;28;20080;-78
2022/05/30 11:35:00;;;;;;;19.35;12.95;;;18.30;99.90;;;;;;5065616;28;20045;-78
2022/05/30 11:37:51;;;;;;;18.52;11.45;;;18.20;99.90;;;;;;5060294;28;20035;-78
2022/05/30 11:40:24;;;;;;;18.88;13.40;;;18.00;99.90;;;;;;5044461;28;20046;-77
2022/05/30 11:43:05;;;;;;;20.38;14.88;;;18.10;99.90;;;;;;5041048;28;20050;-78
2022/05/30 11:45:53;;;;;;;22.17;16.02;;;18.00;99.90;;;;;;5051201;28;20052;-79
2022/05/30 11:48:31;;;;;;;22.20;17.02;;;18.10;99.90;;;;;;5036860;28;20472;-78
2022/05/30 11:51:08;;;;;;;22.40;16.00;;;17.90;99.90;;;;;;5038522;28;20103;-79
2022/05/30 11:53:59;;;;;;;17.23;12.50;;;18.00;99.90;;;;;;5036956;28;20042;-78
2022/05/30 11:56:35;;;;;;;21.10;12.20;;;18.10;99.90;;;;;;5033509;28;20484;-79
2022/05/30 11:59:40;;;;;;;23.42;12.45;;;18.30;99.90;;;;;;5038742;28;20049;-80
2022/05/30 12:02:13;;;;;;;16.02;11.30;;;18.50;99.90;;;;;;5046111;28;20068;-79
2022/05/30 12:05:29;;;;;;;22.00;13.45;;;18.60;99.90;;;;;;5040424;28;20404;-79
2022/05/30 12:08:23;;;;;;;21.33;12.95;;;18.60;99.90;;;;;;5038679;28;20049;-79
2022/05/30 12:11:21;;;;;;;19.58;11.70;;;18.50;99.90;;;;;;5039982;28;20037;-79
2022/05/30 12:13:59;;;;;;;17.13;12.48;;;18.50;99.90;;;;;;5039020;28;20049;-78
2022/05/30 12:16:42;;;;;;;27.08;13.98;;;18.30;99.90;;;;;;5038705;28;20059;-78
2022/05/30 12:25:50;;;;;;;29.38;19.98;;;18.10;99.90;;;;;;5016604;28;20076;-78
2022/05/30 12:28:53;;;;;;;26.10;21.08;;;17.70;99.90;;;;;;5043727;28;20111;-79
2022/05/30 12:31:38;;;;;;;33.97;24.45;;;17.60;99.90;;;;;;5044902;28;20055;-80
2022/05/30 12:34:07;;;;;;;23.10;17.15;;;17.60;99.90;;;;;;5043541;28;20072;-79
2022/05/30 12:36:45;;;;;;;21.42;16.13;;;17.40;99.90;;;;;;5044438;28;20111;-79
2022/05/30 12:39:39;;;;;;;21.05;15.93;;;17.60;99.90;;;;;;5042831;28;20046;-79
2022/05/30 12:42:26;;;;;;;23.13;15.45;;;17.90;99.90;;;;;;5039350;28;20042;-79
2022/05/30 12:44:58;;;;;;;18.23;14.18;;;18.20;99.90;;;;;;5037148;28;20045;-79
2022/05/30 12:47:32;;;;;;;23.75;16.77;;;18.30;99.90;;;;;;5042279;28;20049;-81
2022/05/30 12:50:27;;;;;;;23.45;17.45;;;18.30;99.90;;;;;;5043511;28;20053;-79
2022/05/30 12:52:57;;;;;;;23.73;17.08;;;18.50;99.90;;;;;;5047138;28;20104;-79
2022/05/30 12:55:37;;;;;;;27.70;20.20;;;18.70;99.90;;;;;;5048112;28;20382;-78
2022/05/30 12:58:07;;;;;;;30.10;18.45;;;18.80;99.90;;;;;;5046202;28;20080;-79
2022/05/30 13:00:55;;;;;;;34.53;22.58;;;18.70;99.90;;;;;;5042520;28;20053;-79
2022/05/30 13:03:36;;;;;;;28.77;18.65;;;18.70;99.90;;;;;;5043142;28;20072;-79
2022/05/30 13:06:13;;;;;;;23.67;17.85;;;19.00;99.90;;;;;;5046105;28;20057;-78
2022/05/30 13:08:56;;;;;;;26.83;20.38;;;19.30;99.90;;;;;;5044399;28;20038;-79
2022/05/30 13:11:51;;;;;;;25.50;19.63;;;19.50;99.90;;;;;;5039534;28;20096;-78
2022/05/30 13:14:39;;;;;;;26.90;19.40;;;19.50;99.90;;;;;;5041310;28;20049;-78
2022/05/30 13:17:23;;;;;;;26.92;19.00;;;19.80;99.90;;;;;;5042382;28;20132;-78
2022/05/30 13:19:53;;;;;;;28.35;20.25;;;20.00;99.90;;;;;;5042535;28;20567;-78
2022/05/30 13:22:28;;;;;;;28.67;19.98;;;19.90;99.90;;;;;;5043733;28;20049;-78
2022/05/30 13:24:55;;;;;;;28.43;21.07;;;19.90;99.90;;;;;;5042834;28;20069;-79
2022/05/30 13:27:23;;;;;;;26.83;21.75;;;19.80;99.90;;;;;;5041297;28;20046;-78
2022/05/30 13:29:52;;;;;;;26.85;20.90;;;19.80;99.90;;;;;;5042738;28;20092;-79
2022/05/30 13:32:22;;;;;;;32.58;20.35;;;20.00;99.90;;;;;;5042164;28;20098;-78
2022/05/30 13:34:52;;;;;;;25.55;20.45;;;20.40;99.90;;;;;;5039710;28;20073;-78
2022/05/30 13:37:24;;;;;;;27.38;22.52;;;20.90;99.90;;;;;;5038985;28;20053;-78
2022/05/30 13:39:53;;;;;;;29.05;20.85;;;21.00;99.90;;;;;;5037167;28;20053;-78
2022/05/30 13:42:21;;;;;;;27.20;20.80;;;21.10;99.90;;;;;;5037454;28;20126;-78